sensor_id;sensor_type;location;lat;lon;timestamp;P1;durP1;ratioP1;P2;durP2;ratioP2
57231;SDS011;43488;46.934;8.276;2023-09-12T00:00:48;604.97;;;289.63;;
57231;SDS011;43488;46.934;8.276;2023-09-12T00:03:19;598.47;;;339.45;;
57231;SDS011;43488;46.934;8.276;2023-09-12T00:05:58;612.25;;;277.58;;
57231;SDS011;43488;46.934;8.276;2023-09-12T00:08:27;620.05;;;297.38;;
57231;SDS011;43488;46.934;8.276;2023-09-12T00:11:05;600.70;;;349.38;;
57231;SDS011;43488;46.934;8.276;2023-09-12T00:13:39;605.05;;;272.02;;
57231;SDS011;43488;46.934;8.276;2023-09-12T00:16:07;619.90;;;302.70;;
57231;SDS011;43488;46.934;8.276;2023-09-12T00:18:37;600.25;;;330.08;;
57231;SDS011;43488;46.934;8.276;2023-09-12T00:21:05;596.20;;;347.88;;
57231;SDS011;43488;46.934;8.276;2023-09-12T00:23:33;621.90;;;277.30;;
57231;SDS011;43488;46.934;8.276;2023-09-12T00:26:00;602.20;;;397.95;;
57231;SDS011;43488;46.934;8.276;2023-09-12T00:28:28;624.20;;;337.73;;
57231;SDS011;43488;46.934;8.276;2023-09-12T00:30:55;611.70;;;397.60;;
57231;SDS011;43488;46.934;8.276;2023-09-12T00:33:23;619.30;;;340.38;;
57231;SDS011;43488;46.934;8.276;2023-09-12T00:35:51;621.83;;;341.15;;
57231;SDS011;43488;46.934;8.276;2023-09-12T00:38:19;617.20;;;335.58;;
57231;SDS011;43488;46.934;8.276;2023-09-12T00:40:47;606.60;;;410.85;;
57231;SDS011;43488;46.934;8.276;2023-09-12T00:43:15;617.00;;;325.23;;
57231;SDS011;43488;46.934;8.276;2023-09-12T00:45:43;597.88;;;384.15;;
57231;SDS011;43488;46.934;8.276;2023-09-12T00:48:10;614.80;;;341.75;;
57231;SDS011;43488;46.934;8.276;2023-09-12T00:50:39;600.47;;;402.83;;
57231;SDS011;43488;46.934;8.276;2023-09-12T00:53:07;620.30;;;348.40;;
57231;SDS011;43488;46.934;8.276;2023-09-12T00:55:35;616.08;;;333.23;;
57231;SDS011;43488;46.934;8.276;2023-09-12T00:58:16;617.13;;;338.40;;
57231;SDS011;43488;46.934;8.276;2023-09-12T01:00:44;601.03;;;386.00;;
57231;SDS011;43488;46.934;8.276;2023-09-12T01:03:11;602.33;;;386.65;;
57231;SDS011;43488;46.934;8.276;2023-09-12T01:05:41;599.22;;;394.55;;
57231;SDS011;43488;46.934;8.276;2023-09-12T01:08:10;623.60;;;351.83;;
57231;SDS011;43488;46.934;8.276;2023-09-12T01:10:41;602.35;;;397.52;;
57231;SDS011;43488;46.934;8.276;2023-09-12T01:13:20;619.55;;;325.15;;
57231;SDS011;43488;46.934;8.276;2023-09-12T01:16:03;620.42;;;310.33;;
57231;SDS011;43488;46.934;8.276;2023-09-12T01:18:31;616.42;;;387.38;;
57231;SDS011;43488;46.934;8.276;2023-09-12T01:23:54;603.65;;;367.15;;
57231;SDS011;43488;46.934;8.276;2023-09-12T01:30:03;598.20;;;377.92;;
57231;SDS011;43488;46.934;8.276;2023-09-12T01:32:35;604.88;;;387.63;;
57231;SDS011;43488;46.934;8.276;2023-09-12T01:35:04;590.45;;;383.35;;
57231;SDS011;43488;46.934;8.276;2023-09-12T01:37:32;593.58;;;374.25;;
57231;SDS011;43488;46.934;8.276;2023-09-12T01:39:59;617.85;;;338.80;;
57231;SDS011;43488;46.934;8.276;2023-09-12T01:42:29;608.58;;;259.77;;
57231;SDS011;43488;46.934;8.276;2023-09-12T01:45:02;619.85;;;278.17;;
57231;SDS011;43488;46.934;8.276;2023-09-12T01:47:32;613.28;;;358.80;;
57231;SDS011;43488;46.934;8.276;2023-09-12T01:50:01;608.85;;;296.30;;
57231;SDS011;43488;46.934;8.276;2023-09-12T01:52:29;593.65;;;374.10;;
57231;SDS011;43488;46.934;8.276;2023-09-12T01:54:58;614.95;;;303.48;;
57231;SDS011;43488;46.934;8.276;2023-09-12T01:57:26;595.83;;;378.15;;
57231;SDS011;43488;46.934;8.276;2023-09-12T02:00:05;622.88;;;293.23;;
57231;SDS011;43488;46.934;8.276;2023-09-12T02:02:33;640.00;;;288.23;;
57231;SDS011;43488;46.934;8.276;2023-09-12T02:07:56;608.50;;;239.15;;
57231;SDS011;43488;46.934;8.276;2023-09-12T02:10:23;593.38;;;317.90;;
57231;SDS011;43488;46.934;8.276;2023-09-12T02:12:50;723.28;;;249.02;;
57231;SDS011;43488;46.934;8.276;2023-09-12T02:15:20;620.70;;;255.13;;
57231;SDS011;43488;46.934;8.276;2023-09-12T02:17:48;616.70;;;299.88;;
57231;SDS011;43488;46.934;8.276;2023-09-12T02:20:24;610.28;;;252.50;;
57231;SDS011;43488;46.934;8.276;2023-09-12T02:22:52;598.50;;;354.58;;
57231;SDS011;43488;46.934;8.276;2023-09-12T02:25:20;625.40;;;287.65;;
57231;SDS011;43488;46.934;8.276;2023-09-12T02:27:47;596.45;;;330.10;;
57231;SDS011;43488;46.934;8.276;2023-09-12T02:30:15;615.72;;;269.17;;
57231;SDS011;43488;46.934;8.276;2023-09-12T02:32:43;602.67;;;342.40;;
57231;SDS011;43488;46.934;8.276;2023-09-12T02:35:11;593.58;;;338.30;;
57231;SDS011;43488;46.934;8.276;2023-09-12T02:37:38;603.55;;;367.23;;
57231;SDS011;43488;46.934;8.276;2023-09-12T02:40:06;608.17;;;259.80;;
57231;SDS011;43488;46.934;8.276;2023-09-12T02:42:39;615.50;;;273.80;;
57231;SDS011;43488;46.934;8.276;2023-09-12T02:45:07;588.15;;;338.35;;
57231;SDS011;43488;46.934;8.276;2023-09-12T02:47:35;608.42;;;266.05;;
57231;SDS011;43488;46.934;8.276;2023-09-12T02:50:03;610.53;;;274.13;;
57231;SDS011;43488;46.934;8.276;2023-09-12T02:52:30;598.05;;;358.85;;
57231;SDS011;43488;46.934;8.276;2023-09-12T02:54:58;587.78;;;348.73;;
57231;SDS011;43488;46.934;8.276;2023-09-12T02:57:25;609.90;;;268.52;;
57231;SDS011;43488;46.934;8.276;2023-09-12T02:59:52;612.78;;;270.88;;
57231;SDS011;43488;46.934;8.276;2023-09-12T03:02:20;614.55;;;275.60;;
57231;SDS011;43488;46.934;8.276;2023-09-12T03:04:47;616.28;;;284.85;;
57231;SDS011;43488;46.934;8.276;2023-09-12T03:07:15;782.50;;;309.38;;
57231;SDS011;43488;46.934;8.276;2023-09-12T03:09:42;741.03;;;291.45;;
57231;SDS011;43488;46.934;8.276;2023-09-12T03:12:10;739.47;;;310.02;;
57231;SDS011;43488;46.934;8.276;2023-09-12T03:14:37;759.28;;;312.63;;
57231;SDS011;43488;46.934;8.276;2023-09-12T03:17:05;757.90;;;303.75;;
57231;SDS011;43488;46.934;8.276;2023-09-12T03:19:32;769.13;;;309.27;;
57231;SDS011;43488;46.934;8.276;2023-09-12T03:22:00;777.15;;;320.17;;
57231;SDS011;43488;46.934;8.276;2023-09-12T03:27:17;778.90;;;317.95;;
57231;SDS011;43488;46.934;8.276;2023-09-12T03:29:48;783.67;;;323.20;;
57231;SDS011;43488;46.934;8.276;2023-09-12T03:32:29;779.70;;;318.70;;
57231;SDS011;43488;46.934;8.276;2023-09-12T03:34:56;763.55;;;299.40;;
57231;SDS011;43488;46.934;8.276;2023-09-12T03:37:23;774.28;;;320.33;;
57231;SDS011;43488;46.934;8.276;2023-09-12T03:39:53;770.05;;;312.90;;
57231;SDS011;43488;46.934;8.276;2023-09-12T03:42:21;726.08;;;314.38;;
57231;SDS011;43488;46.934;8.276;2023-09-12T03:44:49;689.72;;;291.08;;
57231;SDS011;43488;46.934;8.276;2023-09-12T03:47:16;612.75;;;263.02;;
57231;SDS011;43488;46.934;8.276;2023-09-12T03:49:44;641.38;;;279.52;;
57231;SDS011;43488;46.934;8.276;2023-09-12T03:52:11;639.95;;;272.98;;
57231;SDS011;43488;46.934;8.276;2023-09-12T03:54:38;643.05;;;273.73;;
57231;SDS011;43488;46.934;8.276;2023-09-12T03:57:05;637.25;;;278.40;;
57231;SDS011;43488;46.934;8.276;2023-09-12T03:59:33;660.60;;;286.52;;
57231;SDS011;43488;46.934;8.276;2023-09-12T04:02:01;669.15;;;292.10;;
57231;SDS011;43488;46.934;8.276;2023-09-12T04:04:29;672.00;;;298.10;;
57231;SDS011;43488;46.934;8.276;2023-09-12T04:06:57;668.33;;;287.90;;
57231;SDS011;43488;46.934;8.276;2023-09-12T04:09:36;723.10;;;293.58;;
57231;SDS011;43488;46.934;8.276;2023-09-12T04:12:04;687.88;;;248.77;;
57231;SDS011;43488;46.934;8.276;2023-09-12T04:14:42;565.22;;;319.10;;
57231;SDS011;43488;46.934;8.276;2023-09-12T04:17:09;605.00;;;240.65;;
57231;SDS011;43488;46.934;8.276;2023-09-12T04:19:37;580.50;;;325.83;;
57231;SDS011;43488;46.934;8.276;2023-09-12T04:22:04;627.50;;;253.02;;
57231;SDS011;43488;46.934;8.276;2023-09-12T04:24:31;710.47;;;308.13;;
57231;SDS011;43488;46.934;8.276;2023-09-12T04:26:58;703.17;;;301.33;;
57231;SDS011;43488;46.934;8.276;2023-09-12T04:29:26;697.03;;;292.75;;
57231;SDS011;43488;46.934;8.276;2023-09-12T04:31:54;696.55;;;302.73;;
57231;SDS011;43488;46.934;8.276;2023-09-12T04:34:41;696.72;;;305.40;;
57231;SDS011;43488;46.934;8.276;2023-09-12T04:37:10;700.30;;;308.42;;
57231;SDS011;43488;46.934;8.276;2023-09-12T04:39:37;680.28;;;301.08;;
57231;SDS011;43488;46.934;8.276;2023-09-12T04:42:04;699.45;;;306.90;;
57231;SDS011;43488;46.934;8.276;2023-09-12T04:44:35;686.05;;;294.23;;
57231;SDS011;43488;46.934;8.276;2023-09-12T04:47:15;672.58;;;286.45;;
57231;SDS011;43488;46.934;8.276;2023-09-12T04:49:43;689.80;;;295.45;;
57231;SDS011;43488;46.934;8.276;2023-09-12T04:52:11;691.22;;;306.83;;
57231;SDS011;43488;46.934;8.276;2023-09-12T04:54:38;715.40;;;314.17;;
57231;SDS011;43488;46.934;8.276;2023-09-12T04:57:09;683.83;;;291.52;;
57231;SDS011;43488;46.934;8.276;2023-09-12T04:59:38;679.47;;;302.05;;
57231;SDS011;43488;46.934;8.276;2023-09-12T05:02:15;688.63;;;309.42;;
57231;SDS011;43488;46.934;8.276;2023-09-12T05:04:49;702.50;;;302.77;;
57231;SDS011;43488;46.934;8.276;2023-09-12T05:07:37;714.88;;;311.42;;
57231;SDS011;43488;46.934;8.276;2023-09-12T05:10:05;715.75;;;304.95;;
57231;SDS011;43488;46.934;8.276;2023-09-12T05:12:50;723.30;;;310.50;;
57231;SDS011;43488;46.934;8.276;2023-09-12T05:15:17;707.30;;;275.95;;
57231;SDS011;43488;46.934;8.276;2023-09-12T05:17:44;720.50;;;308.63;;
57231;SDS011;43488;46.934;8.276;2023-09-12T05:20:12;732.63;;;322.10;;
57231;SDS011;43488;46.934;8.276;2023-09-12T05:23:05;715.72;;;291.10;;
57231;SDS011;43488;46.934;8.276;2023-09-12T05:25:42;776.50;;;313.05;;
57231;SDS011;43488;46.934;8.276;2023-09-12T05:28:34;681.42;;;296.40;;
57231;SDS011;43488;46.934;8.276;2023-09-12T05:31:04;715.05;;;315.00;;
57231;SDS011;43488;46.934;8.276;2023-09-12T05:33:47;723.75;;;317.98;;
57231;SDS011;43488;46.934;8.276;2023-09-12T05:36:21;702.03;;;301.52;;
57231;SDS011;43488;46.934;8.276;2023-09-12T05:39:19;682.23;;;291.77;;
57231;SDS011;43488;46.934;8.276;2023-09-12T05:42:42;692.63;;;287.73;;
57231;SDS011;43488;46.934;8.276;2023-09-12T05:48:02;720.90;;;311.05;;
57231;SDS011;43488;46.934;8.276;2023-09-12T05:50:48;725.20;;;309.00;;
57231;SDS011;43488;46.934;8.276;2023-09-12T05:53:43;726.55;;;305.45;;
57231;SDS011;43488;46.934;8.276;2023-09-12T05:56:30;721.33;;;310.33;;
57231;SDS011;43488;46.934;8.276;2023-09-12T05:59:14;715.13;;;297.30;;
57231;SDS011;43488;46.934;8.276;2023-09-12T06:01:44;711.42;;;298.95;;
57231;SDS011;43488;46.934;8.276;2023-09-12T06:04:20;718.13;;;317.48;;
57231;SDS011;43488;46.934;8.276;2023-09-12T06:07:32;685.15;;;299.30;;
57231;SDS011;43488;46.934;8.276;2023-09-12T06:10:02;674.72;;;284.05;;
57231;SDS011;43488;46.934;8.276;2023-09-12T06:12:44;691.13;;;306.20;;
57231;SDS011;43488;46.934;8.276;2023-09-12T06:15:16;695.53;;;285.33;;
57231;SDS011;43488;46.934;8.276;2023-09-12T06:18:02;712.58;;;311.67;;
57231;SDS011;43488;46.934;8.276;2023-09-12T06:21:00;719.72;;;309.83;;
57231;SDS011;43488;46.934;8.276;2023-09-12T06:24:00;713.53;;;300.27;;
57231;SDS011;43488;46.934;8.276;2023-09-12T06:27:02;716.17;;;314.55;;
57231;SDS011;43488;46.934;8.276;2023-09-12T06:29:37;724.92;;;308.90;;
57231;SDS011;43488;46.934;8.276;2023-09-12T06:32:37;748.40;;;315.75;;
57231;SDS011;43488;46.934;8.276;2023-09-12T06:35:22;726.33;;;306.00;;
57231;SDS011;43488;46.934;8.276;2023-09-12T06:37:49;735.72;;;310.83;;
57231;SDS011;43488;46.934;8.276;2023-09-12T06:40:29;735.78;;;303.50;;
57231;SDS011;43488;46.934;8.276;2023-09-12T06:43:18;742.40;;;305.38;;
57231;SDS011;43488;46.934;8.276;2023-09-12T06:45:45;743.97;;;297.25;;
57231;SDS011;43488;46.934;8.276;2023-09-12T06:48:13;723.97;;;281.88;;
57231;SDS011;43488;46.934;8.276;2023-09-12T06:50:47;712.50;;;310.98;;
57231;SDS011;43488;46.934;8.276;2023-09-12T06:53:49;719.45;;;312.13;;
57231;SDS011;43488;46.934;8.276;2023-09-12T06:57:13;708.72;;;305.33;;
57231;SDS011;43488;46.934;8.276;2023-09-12T06:59:52;708.15;;;307.23;;
57231;SDS011;43488;46.934;8.276;2023-09-12T07:02:22;718.92;;;324.60;;
57231;SDS011;43488;46.934;8.276;2023-09-12T07:04:49;707.78;;;274.58;;
57231;SDS011;43488;46.934;8.276;2023-09-12T07:07:17;709.67;;;311.80;;
57231;SDS011;43488;46.934;8.276;2023-09-12T07:13:11;698.00;;;307.98;;
57231;SDS011;43488;46.934;8.276;2023-09-12T07:15:56;722.42;;;318.42;;
57231;SDS011;43488;46.934;8.276;2023-09-12T07:18:39;772.22;;;323.92;;
57231;SDS011;43488;46.934;8.276;2023-09-12T07:21:25;744.78;;;307.73;;
57231;SDS011;43488;46.934;8.276;2023-09-12T07:24:02;724.60;;;270.23;;
57231;SDS011;43488;46.934;8.276;2023-09-12T07:27:01;789.45;;;320.23;;
57231;SDS011;43488;46.934;8.276;2023-09-12T07:29:46;814.20;;;316.77;;
57231;SDS011;43488;46.934;8.276;2023-09-12T07:32:32;730.63;;;305.67;;
57231;SDS011;43488;46.934;8.276;2023-09-12T07:35:00;747.58;;;311.40;;
57231;SDS011;43488;46.934;8.276;2023-09-12T07:37:29;778.95;;;324.15;;
57231;SDS011;43488;46.934;8.276;2023-09-12T07:40:12;702.53;;;208.98;;
57231;SDS011;43488;46.934;8.276;2023-09-12T07:43:02;734.97;;;259.88;;
57231;SDS011;43488;46.934;8.276;2023-09-12T07:45:54;740.92;;;260.90;;
57231;SDS011;43488;46.934;8.276;2023-09-12T07:48:39;732.40;;;305.27;;
57231;SDS011;43488;46.934;8.276;2023-09-12T07:51:21;752.78;;;327.38;;
57231;SDS011;43488;46.934;8.276;2023-09-12T07:54:05;744.45;;;308.20;;
57231;SDS011;43488;46.934;8.276;2023-09-12T07:56:39;765.97;;;332.60;;
57231;SDS011;43488;46.934;8.276;2023-09-12T07:59:21;776.00;;;321.40;;
57231;SDS011;43488;46.934;8.276;2023-09-12T08:01:52;740.43;;;301.17;;
57231;SDS011;43488;46.934;8.276;2023-09-12T08:04:25;755.53;;;321.48;;
57231;SDS011;43488;46.934;8.276;2023-09-12T08:07:15;732.25;;;300.10;;
57231;SDS011;43488;46.934;8.276;2023-09-12T08:09:51;788.80;;;293.17;;
57231;SDS011;43488;46.934;8.276;2023-09-12T08:12:53;774.05;;;309.70;;
57231;SDS011;43488;46.934;8.276;2023-09-12T08:15:23;763.28;;;329.23;;
57231;SDS011;43488;46.934;8.276;2023-09-12T08:18:07;736.13;;;318.23;;
57231;SDS011;43488;46.934;8.276;2023-09-12T08:20:37;716.85;;;281.48;;
57231;SDS011;43488;46.934;8.276;2023-09-12T08:23:27;773.10;;;322.92;;
57231;SDS011;43488;46.934;8.276;2023-09-12T08:28:50;753.90;;;306.10;;
57231;SDS011;43488;46.934;8.276;2023-09-12T08:31:24;756.88;;;309.55;;
57231;SDS011;43488;46.934;8.276;2023-09-12T08:34:11;797.80;;;312.17;;
57231;SDS011;43488;46.934;8.276;2023-09-12T08:36:55;612.40;;;273.30;;
57231;SDS011;43488;46.934;8.276;2023-09-12T08:39:43;700.28;;;319.35;;
57231;SDS011;43488;46.934;8.276;2023-09-12T08:42:23;712.50;;;310.38;;
57231;SDS011;43488;46.934;8.276;2023-09-12T08:44:56;696.00;;;300.95;;
57231;SDS011;43488;46.934;8.276;2023-09-12T08:47:23;729.47;;;318.33;;
57231;SDS011;43488;46.934;8.276;2023-09-12T08:49:52;730.83;;;323.05;;
57231;SDS011;43488;46.934;8.276;2023-09-12T08:52:21;748.50;;;326.30;;
57231;SDS011;43488;46.934;8.276;2023-09-12T08:54:48;666.38;;;303.17;;
57231;SDS011;43488;46.934;8.276;2023-09-12T08:57:18;753.67;;;349.92;;
57231;SDS011;43488;46.934;8.276;2023-09-12T09:00:11;709.00;;;325.45;;
57231;SDS011;43488;46.934;8.276;2023-09-12T09:02:42;808.33;;;337.33;;
57231;SDS011;43488;46.934;8.276;2023-09-12T09:05:17;772.40;;;302.52;;
57231;SDS011;43488;46.934;8.276;2023-09-12T09:08:02;775.78;;;314.58;;
57231;SDS011;43488;46.934;8.276;2023-09-12T09:10:30;806.40;;;321.67;;
57231;SDS011;43488;46.934;8.276;2023-09-12T09:13:18;810.88;;;330.98;;
57231;SDS011;43488;46.934;8.276;2023-09-12T09:16:11;784.47;;;338.23;;
57231;SDS011;43488;46.934;8.276;2023-09-12T09:21:45;785.53;;;305.50;;
57231;SDS011;43488;46.934;8.276;2023-09-12T09:24:50;786.15;;;316.23;;
57231;SDS011;43488;46.934;8.276;2023-09-12T09:27:39;793.83;;;323.98;;
57231;SDS011;43488;46.934;8.276;2023-09-12T09:30:06;791.08;;;320.05;;
57231;SDS011;43488;46.934;8.276;2023-09-12T09:32:34;809.67;;;347.60;;
57231;SDS011;43488;46.934;8.276;2023-09-12T09:35:16;792.05;;;324.05;;
57231;SDS011;43488;46.934;8.276;2023-09-12T09:38:13;794.67;;;322.15;;
57231;SDS011;43488;46.934;8.276;2023-09-12T09:40:50;799.97;;;347.13;;
57231;SDS011;43488;46.934;8.276;2023-09-12T09:46:24;811.13;;;341.67;;
57231;SDS011;43488;46.934;8.276;2023-09-12T09:56:24;797.15;;;326.73;;
57231;SDS011;43488;46.934;8.276;2023-09-12T09:59:13;782.05;;;324.10;;
57231;SDS011;43488;46.934;8.276;2023-09-12T10:02:03;793.85;;;330.58;;
57231;SDS011;43488;46.934;8.276;2023-09-12T10:04:42;799.55;;;344.65;;
57231;SDS011;43488;46.934;8.276;2023-09-12T10:07:13;775.10;;;306.60;;
57231;SDS011;43488;46.934;8.276;2023-09-12T10:09:42;814.22;;;341.85;;
57231;SDS011;43488;46.934;8.276;2023-09-12T10:12:11;795.97;;;301.60;;
57231;SDS011;43488;46.934;8.276;2023-09-12T10:14:53;820.58;;;336.30;;
57231;SDS011;43488;46.934;8.276;2023-09-12T10:17:31;824.88;;;346.70;;
57231;SDS011;43488;46.934;8.276;2023-09-12T10:20:15;798.45;;;327.40;;
57231;SDS011;43488;46.934;8.276;2023-09-12T10:23:34;794.55;;;324.58;;
57231;SDS011;43488;46.934;8.276;2023-09-12T10:25:49;791.17;;;336.15;;
57231;SDS011;43488;46.934;8.276;2023-09-12T10:28:26;780.75;;;314.40;;
57231;SDS011;43488;46.934;8.276;2023-09-12T10:31:17;785.63;;;317.67;;
57231;SDS011;43488;46.934;8.276;2023-09-12T10:33:44;810.92;;;332.33;;
57231;SDS011;43488;46.934;8.276;2023-09-12T10:36:13;829.38;;;352.63;;
57231;SDS011;43488;46.934;8.276;2023-09-12T10:38:44;778.13;;;289.38;;
57231;SDS011;43488;46.934;8.276;2023-09-12T10:41:15;771.83;;;290.40;;
57231;SDS011;43488;46.934;8.276;2023-09-12T10:44:14;808.63;;;338.98;;
57231;SDS011;43488;46.934;8.276;2023-09-12T10:46:45;785.85;;;294.52;;
57231;SDS011;43488;46.934;8.276;2023-09-12T10:49:29;807.95;;;325.20;;
57231;SDS011;43488;46.934;8.276;2023-09-12T10:52:00;801.13;;;342.00;;
57231;SDS011;43488;46.934;8.276;2023-09-12T10:54:56;795.67;;;340.35;;
57231;SDS011;43488;46.934;8.276;2023-09-12T10:57:26;773.65;;;334.35;;
57231;SDS011;43488;46.934;8.276;2023-09-12T11:02:31;780.20;;;321.75;;
57231;SDS011;43488;46.934;8.276;2023-09-12T11:05:04;768.22;;;327.08;;
57231;SDS011;43488;46.934;8.276;2023-09-12T11:07:57;792.72;;;342.13;;
57231;SDS011;43488;46.934;8.276;2023-09-12T11:10:26;782.00;;;321.70;;
57231;SDS011;43488;46.934;8.276;2023-09-12T11:12:56;799.40;;;338.27;;
57231;SDS011;43488;46.934;8.276;2023-09-12T11:15:24;800.83;;;339.17;;
57231;SDS011;43488;46.934;8.276;2023-09-12T11:18:00;767.47;;;318.23;;
57231;SDS011;43488;46.934;8.276;2023-09-12T11:20:48;727.78;;;322.60;;
57231;SDS011;43488;46.934;8.276;2023-09-12T11:23:16;722.03;;;313.60;;
57231;SDS011;43488;46.934;8.276;2023-09-12T11:25:46;741.42;;;333.05;;
57231;SDS011;43488;46.934;8.276;2023-09-12T11:28:28;728.40;;;327.58;;
57231;SDS011;43488;46.934;8.276;2023-09-12T11:36:40;723.33;;;304.67;;
57231;SDS011;43488;46.934;8.276;2023-09-12T11:39:22;519.90;;;267.60;;
57231;SDS011;43488;46.934;8.276;2023-09-12T11:41:52;682.50;;;309.07;;
57231;SDS011;43488;46.934;8.276;2023-09-12T11:44:39;648.38;;;296.50;;
57231;SDS011;43488;46.934;8.276;2023-09-12T11:47:08;654.92;;;296.58;;
57231;SDS011;43488;46.934;8.276;2023-09-12T11:49:37;657.63;;;309.85;;
57231;SDS011;43488;46.934;8.276;2023-09-12T11:52:10;683.77;;;313.57;;
57231;SDS011;43488;46.934;8.276;2023-09-12T11:54:47;698.10;;;309.45;;
57231;SDS011;43488;46.934;8.276;2023-09-12T11:57:15;700.55;;;309.70;;
57231;SDS011;43488;46.934;8.276;2023-09-12T11:59:44;737.88;;;331.92;;
57231;SDS011;43488;46.934;8.276;2023-09-12T12:02:15;740.40;;;318.33;;
57231;SDS011;43488;46.934;8.276;2023-09-12T12:04:46;732.22;;;306.98;;
57231;SDS011;43488;46.934;8.276;2023-09-12T12:07:37;746.55;;;335.92;;
57231;SDS011;43488;46.934;8.276;2023-09-12T12:10:05;731.97;;;309.13;;
57231;SDS011;43488;46.934;8.276;2023-09-12T12:12:34;746.60;;;327.10;;
57231;SDS011;43488;46.934;8.276;2023-09-12T12:15:02;736.25;;;312.73;;
57231;SDS011;43488;46.934;8.276;2023-09-12T12:17:35;739.63;;;315.42;;
57231;SDS011;43488;46.934;8.276;2023-09-12T12:20:04;699.83;;;325.40;;
57231;SDS011;43488;46.934;8.276;2023-09-12T12:22:39;633.15;;;426.30;;
57231;SDS011;43488;46.934;8.276;2023-09-12T12:25:10;635.93;;;410.07;;
57231;SDS011;43488;46.934;8.276;2023-09-12T12:27:53;630.42;;;412.58;;
57231;SDS011;43488;46.934;8.276;2023-09-12T12:30:24;650.80;;;397.23;;
57231;SDS011;43488;46.934;8.276;2023-09-12T12:33:06;645.25;;;384.17;;
57231;SDS011;43488;46.934;8.276;2023-09-12T12:35:35;622.72;;;430.05;;
57231;SDS011;43488;46.934;8.276;2023-09-12T12:38:03;655.13;;;375.67;;
57231;SDS011;43488;46.934;8.276;2023-09-12T12:40:39;635.70;;;443.65;;
57231;SDS011;43488;46.934;8.276;2023-09-12T12:43:17;651.55;;;374.42;;
57231;SDS011;43488;46.934;8.276;2023-09-12T12:45:52;631.95;;;421.40;;
57231;SDS011;43488;46.934;8.276;2023-09-12T12:48:30;623.53;;;466.85;;
57231;SDS011;43488;46.934;8.276;2023-09-12T12:51:14;615.55;;;435.80;;
57231;SDS011;43488;46.934;8.276;2023-09-12T12:53:52;614.28;;;440.77;;
57231;SDS011;43488;46.934;8.276;2023-09-12T12:56:29;638.80;;;418.83;;
57231;SDS011;43488;46.934;8.276;2023-09-12T12:58:58;617.97;;;443.20;;
57231;SDS011;43488;46.934;8.276;2023-09-12T13:01:30;633.53;;;407.50;;
57231;SDS011;43488;46.934;8.276;2023-09-12T13:03:58;791.15;;;325.80;;
57231;SDS011;43488;46.934;8.276;2023-09-12T13:06:45;760.00;;;305.20;;
57231;SDS011;43488;46.934;8.276;2023-09-12T13:09:13;716.05;;;280.23;;
57231;SDS011;43488;46.934;8.276;2023-09-12T13:11:43;712.27;;;293.53;;
57231;SDS011;43488;46.934;8.276;2023-09-12T13:14:11;695.55;;;296.95;;
57231;SDS011;43488;46.934;8.276;2023-09-12T13:16:58;662.08;;;285.63;;
57231;SDS011;43488;46.934;8.276;2023-09-12T13:19:28;654.72;;;282.05;;
57231;SDS011;43488;46.934;8.276;2023-09-12T13:24:36;659.08;;;274.45;;
57231;SDS011;43488;46.934;8.276;2023-09-12T13:27:03;662.83;;;281.70;;
57231;SDS011;43488;46.934;8.276;2023-09-12T13:29:31;701.47;;;297.00;;
57231;SDS011;43488;46.934;8.276;2023-09-12T13:32:00;679.67;;;295.63;;
57231;SDS011;43488;46.934;8.276;2023-09-12T13:34:27;664.15;;;286.75;;
57231;SDS011;43488;46.934;8.276;2023-09-12T13:36:54;650.85;;;272.10;;
57231;SDS011;43488;46.934;8.276;2023-09-12T13:39:23;690.63;;;293.58;;
57231;SDS011;43488;46.934;8.276;2023-09-12T13:41:51;705.40;;;319.95;;
57231;SDS011;43488;46.934;8.276;2023-09-12T13:44:18;684.03;;;295.50;;
57231;SDS011;43488;46.934;8.276;2023-09-12T13:46:45;676.50;;;285.63;;
57231;SDS011;43488;46.934;8.276;2023-09-12T13:49:14;708.83;;;303.52;;
57231;SDS011;43488;46.934;8.276;2023-09-12T13:51:41;722.08;;;318.55;;
57231;SDS011;43488;46.934;8.276;2023-09-12T13:54:08;722.22;;;307.67;;
57231;SDS011;43488;46.934;8.276;2023-09-12T13:56:41;734.08;;;324.65;;
57231;SDS011;43488;46.934;8.276;2023-09-12T13:59:09;728.42;;;296.30;;
57231;SDS011;43488;46.934;8.276;2023-09-12T14:01:37;739.20;;;313.13;;
57231;SDS011;43488;46.934;8.276;2023-09-12T14:04:04;744.60;;;322.23;;
57231;SDS011;43488;46.934;8.276;2023-09-12T14:06:32;762.00;;;318.42;;
57231;SDS011;43488;46.934;8.276;2023-09-12T14:09:02;790.47;;;330.70;;
57231;SDS011;43488;46.934;8.276;2023-09-12T14:11:31;813.58;;;328.85;;
57231;SDS011;43488;46.934;8.276;2023-09-12T14:13:58;808.03;;;312.08;;
57231;SDS011;43488;46.934;8.276;2023-09-12T14:16:26;801.80;;;334.88;;
57231;SDS011;43488;46.934;8.276;2023-09-12T14:18:53;798.28;;;321.40;;
57231;SDS011;43488;46.934;8.276;2023-09-12T14:21:23;816.35;;;333.48;;
57231;SDS011;43488;46.934;8.276;2023-09-12T14:23:51;818.20;;;342.35;;
57231;SDS011;43488;46.934;8.276;2023-09-12T14:26:18;809.67;;;313.05;;
57231;SDS011;43488;46.934;8.276;2023-09-12T14:28:45;808.78;;;310.98;;
57231;SDS011;43488;46.934;8.276;2023-09-12T14:31:13;808.78;;;307.38;;
57231;SDS011;43488;46.934;8.276;2023-09-12T14:33:41;786.88;;;284.17;;
57231;SDS011;43488;46.934;8.276;2023-09-12T14:36:09;812.80;;;312.52;;
57231;SDS011;43488;46.934;8.276;2023-09-12T14:38:36;722.60;;;239.68;;
57231;SDS011;43488;46.934;8.276;2023-09-12T14:41:03;667.28;;;271.27;;
57231;SDS011;43488;46.934;8.276;2023-09-12T14:43:30;611.60;;;339.58;;
57231;SDS011;43488;46.934;8.276;2023-09-12T14:45:58;617.85;;;331.30;;
57231;SDS011;43488;46.934;8.276;2023-09-12T14:48:26;784.58;;;270.38;;
57231;SDS011;43488;46.934;8.276;2023-09-12T14:50:54;755.60;;;252.32;;
57231;SDS011;43488;46.934;8.276;2023-09-12T14:53:22;775.63;;;272.95;;
57231;SDS011;43488;46.934;8.276;2023-09-12T14:55:49;744.58;;;240.63;;
57231;SDS011;43488;46.934;8.276;2023-09-12T14:58:17;611.22;;;341.13;;
57231;SDS011;43488;46.934;8.276;2023-09-12T15:00:44;755.97;;;276.42;;
57231;SDS011;43488;46.934;8.276;2023-09-12T15:06:08;757.10;;;291.93;;
57231;SDS011;43488;46.934;8.276;2023-09-12T15:08:37;734.78;;;255.80;;
57231;SDS011;43488;46.934;8.276;2023-09-12T15:11:04;679.58;;;287.15;;
57231;SDS011;43488;46.934;8.276;2023-09-12T15:13:32;627.78;;;266.63;;
57231;SDS011;43488;46.934;8.276;2023-09-12T15:15:59;634.05;;;341.95;;
57231;SDS011;43488;46.934;8.276;2023-09-12T15:18:27;614.45;;;257.48;;
57231;SDS011;43488;46.934;8.276;2023-09-12T15:20:55;733.00;;;267.42;;
57231;SDS011;43488;46.934;8.276;2023-09-12T15:23:22;632.90;;;236.32;;